LH716 EDDF-RJTT
Flight info
| Callsign | LH716 |
|---|---|
| Flight time | N/A |
| Altitude | 39500 |
| Route | CINDY6F CINDY Z74 HAREM DCT ASLEP DCT TAKUT L603 BESNI L605 MIQ DCT ALUTU DCT BIBAG Q104 AKIMA DCT PESAT DCT BUDOP DCT DVA DCT BULEN DCT RIXEN UA17 YAVRU UA4 SIV UW706 TBN UN61 NOLGA DCT BARAD DCT SUBUT T916 BALUN/K0872F395 T916 PIGAL M610 RULAD/K0852S1205 A343 POSOT B215 FKG W188 LIKMI W270 DKO W69 HUR B339 LADIX W34 VAPGU W100 ORAVA W201 UNSEK A326 DONVO G597 AGAVO/N0467F395 Y644 EGOBA Y697 LANAT Y71 XAC XACV |
| Aircraft | A333/H-V/N |
Departure
| Time | 2026-04-16 14:19 |
|---|---|
| Airport | Frankfurt Main Airport (EDDF) |
Arrival
| Time | N/A |
|---|---|
| Airport | Tokyo Haneda International Airport (RJTT) |
| Time | Latitude | Longitude | Altitude | Speed | Heading |
|---|---|---|---|---|---|
| 2026-04-16 14:01 | 50.04648 | 8.57253 | 373 ft | 0 kts | 298° |
| 2026-04-16 14:07 | 50.04648 | 8.57254 | 373 ft | 2 kts | 298° |
| 2026-04-16 14:07 | 50.04639 | 8.57279 | 368 ft | 3 kts | 298° |
| 2026-04-16 14:08 | 50.04631 | 8.57307 | 370 ft | 3 kts | 266° |
| 2026-04-16 14:08 | 50.04633 | 8.57336 | 369 ft | 3 kts | 258° |
| 2026-04-16 14:08 | 50.04637 | 8.57365 | 366 ft | 3 kts | 247° |
| 2026-04-16 14:08 | 50.04649 | 8.57390 | 368 ft | 3 kts | 200° |
| 2026-04-16 14:09 | 50.04651 | 8.57392 | 368 ft | 0 kts | 194° |
| 2026-04-16 14:11 | 50.04647 | 8.57390 | 368 ft | 1 kts | 194° |
| 2026-04-16 14:11 | 50.04631 | 8.57383 | 371 ft | 3 kts | 195° |
| 2026-04-16 14:11 | 50.04624 | 8.57389 | 370 ft | 0 kts | 152° |
| 2026-04-16 14:11 | 50.04622 | 8.57394 | 369 ft | 1 kts | 134° |
| 2026-04-16 14:12 | 50.04613 | 8.57414 | 369 ft | 4 kts | 123° |
| 2026-04-16 14:12 | 50.04599 | 8.57461 | 371 ft | 6 kts | 115° |
| 2026-04-16 14:12 | 50.04584 | 8.57490 | 372 ft | 5 kts | 136° |
| 2026-04-16 14:12 | 50.04537 | 8.57528 | 374 ft | 7 kts | 153° |
| 2026-04-16 14:13 | 50.04494 | 8.57574 | 373 ft | 7 kts | 132° |
| 2026-04-16 14:13 | 50.04467 | 8.57648 | 371 ft | 9 kts | 102° |
| 2026-04-16 14:13 | 50.04477 | 8.57746 | 368 ft | 10 kts | 75° |
| 2026-04-16 14:13 | 50.04504 | 8.57853 | 374 ft | 12 kts | 69° |
| 2026-04-16 14:14 | 50.04533 | 8.57983 | 373 ft | 14 kts | 71° |
| 2026-04-16 14:14 | 50.04568 | 8.58128 | 368 ft | 15 kts | 70° |
| 2026-04-16 14:14 | 50.04606 | 8.58289 | 372 ft | 16 kts | 65° |
| 2026-04-16 14:14 | 50.04645 | 8.58448 | 373 ft | 16 kts | 70° |
| 2026-04-16 14:15 | 50.04638 | 8.58553 | 371 ft | 2 kts | 140° |
| 2026-04-16 14:15 | 50.04629 | 8.58558 | 372 ft | 1 kts | 157° |
| 2026-04-16 14:15 | 50.04626 | 8.58560 | 372 ft | 0 kts | 155° |
| 2026-04-16 14:16 | 50.04617 | 8.58569 | 372 ft | 4 kts | 149° |
| 2026-04-16 14:16 | 50.04597 | 8.58583 | 375 ft | 0 kts | 158° |
| 2026-04-16 14:16 | 50.04596 | 8.58584 | 375 ft | 1 kts | 158° |
| 2026-04-16 14:16 | 50.04569 | 8.58601 | 374 ft | 8 kts | 159° |
| 2026-04-16 14:17 | 50.04498 | 8.58614 | 373 ft | 12 kts | 196° |
| 2026-04-16 14:17 | 50.04456 | 8.58525 | 377 ft | 11 kts | 264° |
| 2026-04-16 14:17 | 50.04441 | 8.58394 | 374 ft | 10 kts | 248° |
| 2026-04-16 14:17 | 50.04434 | 8.58370 | 377 ft | 0 kts | 248° |
| 2026-04-16 14:18 | 50.04382 | 8.58157 | 374 ft | 53 kts | 249° |
| 2026-04-16 14:18 | 50.04180 | 8.57304 | 373 ft | 113 kts | 250° |
| 2026-04-16 14:18 | 50.03838 | 8.55877 | 423 ft | 164 kts | 248° |
| 2026-04-16 14:18 | 50.03408 | 8.54087 | 950 ft | 186 kts | 248° |
| 2026-04-16 14:19 | 50.02944 | 8.52149 | 1819 ft | 201 kts | 249° |
| 2026-04-16 14:19 | 50.02399 | 8.49859 | 1945 ft | 253 kts | 250° |
| 2026-04-16 14:19 | 50.01594 | 8.47157 | 2172 ft | 295 kts | 233° |
| 2026-04-16 14:19 | 49.99919 | 8.45104 | 2766 ft | 317 kts | 204° |
| 2026-04-16 14:20 | 49.97889 | 8.44570 | 3401 ft | 287 kts | 174° |
| 2026-04-16 14:20 | 49.96167 | 8.45671 | 3988 ft | 253 kts | 139° |
| 2026-04-16 14:20 | 49.95336 | 8.47844 | 4615 ft | 228 kts | 98° |
| 2026-04-16 14:20 | 49.95379 | 8.50304 | 5283 ft | 229 kts | 86° |
| 2026-04-16 14:21 | 49.95311 | 8.52788 | 5958 ft | 232 kts | 98° |
| 2026-04-16 14:21 | 49.94979 | 8.55266 | 6643 ft | 237 kts | 107° |
| 2026-04-16 14:21 | 49.94436 | 8.57702 | 7256 ft | 239 kts | 113° |
| 2026-04-16 14:21 | 49.93986 | 8.60156 | 7885 ft | 240 kts | 97° |
| 2026-04-16 14:22 | 49.93872 | 8.62746 | 8553 ft | 240 kts | 92° |
| 2026-04-16 14:22 | 49.93812 | 8.65327 | 9213 ft | 235 kts | 92° |
| 2026-04-16 14:22 | 49.93741 | 8.67863 | 9896 ft | 235 kts | 95° |
| 2026-04-16 14:22 | 49.93255 | 8.70176 | 10478 ft | 228 kts | 131° |
| 2026-04-16 14:23 | 49.92081 | 8.71793 | 10919 ft | 226 kts | 148° |
| 2026-04-16 14:23 | 49.90761 | 8.73142 | 11369 ft | 228 kts | 150° |
| 2026-04-16 14:23 | 49.89424 | 8.74494 | 11811 ft | 230 kts | 149° |
| 2026-04-16 14:23 | 49.88236 | 8.76174 | 12285 ft | 234 kts | 124° |
| 2026-04-16 14:24 | 49.87367 | 8.78343 | 12633 ft | 241 kts | 121° |
| 2026-04-16 14:24 | 49.86523 | 8.80667 | 12903 ft | 252 kts | 120° |
| 2026-04-16 14:24 | 49.85661 | 8.83090 | 13175 ft | 263 kts | 120° |
| 2026-04-16 14:24 | 49.84756 | 8.85624 | 13479 ft | 275 kts | 120° |
| 2026-04-16 14:25 | 49.83804 | 8.88277 | 13768 ft | 287 kts | 120° |
| 2026-04-16 14:25 | 49.82811 | 8.91024 | 14039 ft | 298 kts | 120° |
| 2026-04-16 14:25 | 49.81784 | 8.93854 | 14287 ft | 310 kts | 120° |
| 2026-04-16 14:25 | 49.80703 | 8.96828 | 14542 ft | 322 kts | 120° |
| 2026-04-16 14:26 | 49.79586 | 8.99895 | 14791 ft | 329 kts | 120° |
| 2026-04-16 14:26 | 49.78452 | 9.03006 | 15014 ft | 332 kts | 120° |
| 2026-04-16 14:26 | 49.77325 | 9.06096 | 15264 ft | 334 kts | 120° |
| 2026-04-16 14:26 | 49.76191 | 9.09242 | 15516 ft | 335 kts | 114° |
| 2026-04-16 14:27 | 49.75548 | 9.12676 | 15770 ft | 333 kts | 99° |
| 2026-04-16 14:27 | 49.75070 | 9.16213 | 16017 ft | 337 kts | 98° |
| 2026-04-16 14:27 | 49.74407 | 9.19703 | 16265 ft | 339 kts | 118° |
| 2026-04-16 14:27 | 49.72933 | 9.22438 | 16522 ft | 335 kts | 145° |
| 2026-04-16 14:28 | 49.70852 | 9.23936 | 16751 ft | 328 kts | 172° |
| 2026-04-16 14:28 | 49.68621 | 9.23882 | 17016 ft | 318 kts | 199° |
| 2026-04-16 14:28 | 49.66692 | 9.22334 | 17299 ft | 308 kts | 225° |
| 2026-04-16 14:28 | 49.65181 | 9.20011 | 17567 ft | 308 kts | 230° |
| 2026-04-16 14:29 | 49.63644 | 9.17686 | 17826 ft | 312 kts | 224° |
| 2026-04-16 14:29 | 49.61890 | 9.15719 | 18098 ft | 317 kts | 214° |
| 2026-04-16 14:29 | 49.59896 | 9.14192 | 18364 ft | 321 kts | 204° |
| 2026-04-16 14:29 | 49.57745 | 9.13110 | 18619 ft | 328 kts | 198° |
| 2026-04-16 14:30 | 49.55507 | 9.12311 | 18854 ft | 338 kts | 194° |
| 2026-04-16 14:30 | 49.53152 | 9.11622 | 19099 ft | 348 kts | 193° |
| 2026-04-16 14:30 | 49.50732 | 9.10957 | 19344 ft | 356 kts | 193° |
| 2026-04-16 14:30 | 49.48258 | 9.10264 | 19589 ft | 365 kts | 193° |
| 2026-04-16 14:31 | 49.45767 | 9.09536 | 19835 ft | 373 kts | 194° |
| 2026-04-16 14:31 | 49.43197 | 9.08753 | 20077 ft | 380 kts | 194° |
| 2026-04-16 14:31 | 49.40573 | 9.07928 | 20332 ft | 388 kts | 194° |
| 2026-04-16 14:31 | 49.37899 | 9.07070 | 20561 ft | 395 kts | 195° |
| 2026-04-16 14:32 | 49.35204 | 9.06197 | 20817 ft | 402 kts | 195° |
| 2026-04-16 14:32 | 49.32450 | 9.05303 | 21077 ft | 409 kts | 195° |
| 2026-04-16 14:32 | 49.29640 | 9.04392 | 21325 ft | 413 kts | 195° |
| 2026-04-16 14:32 | 49.26813 | 9.03479 | 21571 ft | 416 kts | 195° |
| 2026-04-16 14:33 | 49.23972 | 9.02566 | 21834 ft | 417 kts | 195° |
| 2026-04-16 14:33 | 49.21153 | 9.01661 | 22095 ft | 419 kts | 195° |
| 2026-04-16 14:33 | 49.18282 | 9.00742 | 22361 ft | 421 kts | 193° |
| 2026-04-16 14:33 | 49.15400 | 8.99866 | 22617 ft | 423 kts | 193° |
| 2026-04-16 14:34 | 49.12503 | 8.99026 | 22883 ft | 425 kts | 193° |
| 2026-04-16 14:34 | 49.09579 | 8.98173 | 23156 ft | 427 kts | 193° |
| 2026-04-16 14:34 | 49.06659 | 8.97296 | 23431 ft | 429 kts | 193° |
| 2026-04-16 14:34 | 49.03723 | 8.96392 | 23705 ft | 430 kts | 194° |
| 2026-04-16 14:35 | 49.00818 | 8.95481 | 23946 ft | 433 kts | 193° |
| 2026-04-16 14:35 | 48.97841 | 8.94603 | 24170 ft | 436 kts | 190° |
| 2026-04-16 14:35 | 48.94831 | 8.93809 | 24396 ft | 438 kts | 192° |
| 2026-04-16 14:35 | 48.91856 | 8.92912 | 24639 ft | 440 kts | 195° |
| 2026-04-16 14:36 | 48.88872 | 8.91850 | 24869 ft | 441 kts | 197° |
| 2026-04-16 14:36 | 48.85882 | 8.90733 | 25109 ft | 443 kts | 197° |
| 2026-04-16 14:36 | 48.82864 | 8.89631 | 25352 ft | 444 kts | 197° |
| 2026-04-16 14:36 | 48.79864 | 8.88585 | 25596 ft | 446 kts | 196° |
| 2026-04-16 14:37 | 48.76830 | 8.87574 | 25840 ft | 448 kts | 195° |
| 2026-04-16 14:37 | 48.73767 | 8.86588 | 26077 ft | 450 kts | 195° |
| 2026-04-16 14:37 | 48.70682 | 8.85616 | 26327 ft | 452 kts | 195° |
| 2026-04-16 14:37 | 48.67602 | 8.84655 | 26573 ft | 453 kts | 195° |
| 2026-04-16 14:38 | 48.64493 | 8.83689 | 26828 ft | 455 kts | 195° |
| 2026-04-16 14:38 | 48.61420 | 8.82733 | 27074 ft | 457 kts | 195° |
| 2026-04-16 14:38 | 48.58299 | 8.81761 | 27337 ft | 459 kts | 195° |
| 2026-04-16 14:38 | 48.55160 | 8.80782 | 27595 ft | 460 kts | 195° |
| 2026-04-16 14:39 | 48.52008 | 8.79799 | 27867 ft | 462 kts | 195° |
| 2026-04-16 14:39 | 48.48875 | 8.78823 | 28138 ft | 464 kts | 195° |
| 2026-04-16 14:39 | 48.45705 | 8.77836 | 28403 ft | 466 kts | 195° |
| 2026-04-16 14:39 | 48.42515 | 8.76844 | 28676 ft | 468 kts | 195° |
| 2026-04-16 14:40 | 48.39321 | 8.75853 | 28960 ft | 469 kts | 195° |
| 2026-04-16 14:40 | 48.36112 | 8.74858 | 29240 ft | 471 kts | 195° |
| 2026-04-16 14:40 | 48.32935 | 8.73874 | 29498 ft | 473 kts | 195° |
| 2026-04-16 14:40 | 48.29704 | 8.72875 | 29768 ft | 474 kts | 195° |
| 2026-04-16 14:41 | 48.26464 | 8.71873 | 30057 ft | 476 kts | 195° |
| 2026-04-16 14:41 | 48.23204 | 8.70867 | 30336 ft | 477 kts | 195° |
| 2026-04-16 14:41 | 48.19961 | 8.69868 | 30579 ft | 478 kts | 195° |
| 2026-04-16 14:41 | 48.16688 | 8.68862 | 30823 ft | 478 kts | 195° |
| 2026-04-16 14:42 | 48.13419 | 8.67860 | 31069 ft | 478 kts | 195° |
| 2026-04-16 14:42 | 48.10161 | 8.66862 | 31302 ft | 479 kts | 194° |
| 2026-04-16 14:42 | 48.06922 | 8.65870 | 31549 ft | 479 kts | 194° |
| 2026-04-16 14:42 | 48.03650 | 8.64869 | 31807 ft | 480 kts | 194° |
| 2026-04-16 14:43 | 48.00392 | 8.63875 | 32058 ft | 476 kts | 194° |
| 2026-04-16 14:43 | 47.97136 | 8.62883 | 32319 ft | 476 kts | 194° |
| 2026-04-16 14:43 | 47.93886 | 8.61893 | 32570 ft | 477 kts | 194° |
| 2026-04-16 14:43 | 47.90637 | 8.60905 | 32968 ft | 473 kts | 194° |
| 2026-04-16 14:44 | 47.87464 | 8.59940 | 33303 ft | 471 kts | 194° |
| 2026-04-16 14:44 | 47.84247 | 8.58960 | 33556 ft | 470 kts | 195° |
| 2026-04-16 14:44 | 47.81035 | 8.57980 | 33841 ft | 468 kts | 195° |
| 2026-04-16 14:44 | 47.77902 | 8.57026 | 34397 ft | 456 kts | 195° |
| 2026-04-16 14:45 | 47.74802 | 8.56084 | 34723 ft | 453 kts | 195° |
| 2026-04-16 14:45 | 47.74732 | 8.56063 | 34726 ft | 453 kts | 195° |
| 2026-04-16 14:47 | 47.68526 | 8.54167 | 35129 ft | 449 kts | 195° |
| 2026-04-16 14:47 | 47.55218 | 8.50123 | 35390 ft | 445 kts | 194° |
| 2026-04-16 14:48 | 47.20418 | 8.39415 | 37090 ft | 416 kts | 196° |
| 2026-04-16 14:48 | 46.74040 | 8.40433 | 34411 ft | 524 kts | 164° |
| 2026-04-16 14:48 | 46.38071 | 8.62080 | 20964 ft | 517 kts | 151° |